createdAt,value
2018-09-28T00:01:04.768Z,4.70
2018-09-28T00:03:33.240Z,4.70
2018-09-28T00:06:01.696Z,4.70
2018-09-28T00:08:30.188Z,4.60
2018-09-28T00:10:58.671Z,4.70
2018-09-28T00:13:27.138Z,4.80
2018-09-28T00:15:55.536Z,4.80
2018-09-28T00:18:23.960Z,4.80
2018-09-28T00:20:52.479Z,4.80
2018-09-28T00:23:20.919Z,4.80
2018-09-28T00:25:49.359Z,4.80
2018-09-28T00:28:17.829Z,4.80
2018-09-28T00:30:46.291Z,4.70
2018-09-28T00:33:14.760Z,4.60
2018-09-28T00:35:43.248Z,4.60
2018-09-28T00:38:11.669Z,4.60
2018-09-28T00:40:40.110Z,4.60
2018-09-28T00:43:08.651Z,4.60
2018-09-28T00:45:37.127Z,4.70
2018-09-28T00:48:05.744Z,4.70
2018-09-28T00:50:34.195Z,4.90
2018-09-28T00:53:02.728Z,5.00
2018-09-28T00:55:31.197Z,4.90
2018-09-28T00:57:59.651Z,4.90
2018-09-28T01:00:28.157Z,4.80
2018-09-28T01:02:56.604Z,4.90
2018-09-28T01:05:25.049Z,4.90
2018-09-28T01:07:54.338Z,4.90
2018-09-28T01:10:22.838Z,4.90
2018-09-28T01:12:51.344Z,4.80
2018-09-28T01:15:19.779Z,4.80
2018-09-28T01:17:48.303Z,4.70
2018-09-28T01:20:16.824Z,4.70
2018-09-28T01:22:45.278Z,4.80
2018-09-28T01:25:13.781Z,4.80
2018-09-28T01:27:42.244Z,4.90
2018-09-28T01:30:10.919Z,4.90
2018-09-28T01:32:39.401Z,5.00
2018-09-28T01:35:07.764Z,5.00
2018-09-28T01:37:36.119Z,4.90
2018-09-28T01:40:04.534Z,5.00
2018-09-28T01:42:32.907Z,5.00
2018-09-28T01:45:01.279Z,5.00
2018-09-28T01:47:29.636Z,5.00
2018-09-28T01:49:58.160Z,5.10
2018-09-28T01:52:26.675Z,5.10
2018-09-28T01:54:55.199Z,5.20
2018-09-28T01:57:23.734Z,5.20
2018-09-28T01:59:52.143Z,5.30
2018-09-28T02:02:20.528Z,5.40
2018-09-28T02:04:49.039Z,5.60
2018-09-28T02:07:17.451Z,5.80
2018-09-28T02:09:45.847Z,6.00
2018-09-28T02:12:14.263Z,6.20
2018-09-28T02:14:42.751Z,6.30
2018-09-28T02:17:11.288Z,6.30
2018-09-28T02:19:39.656Z,6.40
2018-09-28T02:22:08.055Z,6.40
2018-09-28T02:24:36.636Z,6.50
2018-09-28T02:27:05.028Z,6.50
2018-09-28T02:29:33.428Z,6.40
2018-09-28T02:32:01.843Z,6.40
2018-09-28T02:34:30.248Z,6.30
2018-09-28T02:36:58.617Z,6.40
2018-09-28T02:39:26.962Z,6.30
2018-09-28T02:41:55.472Z,6.30
2018-09-28T02:44:23.955Z,6.30
2018-09-28T02:46:52.455Z,6.30
2018-09-28T02:49:20.873Z,6.30
2018-09-28T02:51:49.253Z,6.30
2018-09-28T02:54:17.809Z,6.20
2018-09-28T02:56:46.244Z,6.30
2018-09-28T02:59:14.655Z,6.40
2018-09-28T03:01:43.064Z,6.40
2018-09-28T03:04:11.433Z,6.50
2018-09-28T03:06:39.805Z,6.50
2018-09-28T03:09:09.128Z,6.50
2018-09-28T03:11:37.573Z,6.40
2018-09-28T03:14:05.942Z,6.40
2018-09-28T03:16:34.428Z,6.30
2018-09-28T03:19:02.942Z,6.30
2018-09-28T03:21:31.895Z,6.20
2018-09-28T03:24:00.516Z,6.10
2018-09-28T03:26:28.901Z,6.10
2018-09-28T03:28:57.398Z,6.10
2018-09-28T03:31:25.863Z,6.00
2018-09-28T03:33:54.373Z,6.10
2018-09-28T03:36:22.878Z,6.00
2018-09-28T03:38:51.387Z,6.10
2018-09-28T03:41:19.974Z,6.20
2018-09-28T03:43:48.464Z,6.20
2018-09-28T03:46:16.987Z,6.30
2018-09-28T03:48:45.474Z,6.30
2018-09-28T03:51:13.867Z,6.60
2018-09-28T03:53:42.328Z,6.60
2018-09-28T03:56:10.811Z,6.90
2018-09-28T03:58:39.193Z,6.90
2018-09-28T04:01:07.688Z,6.80
2018-09-28T04:03:36.176Z,6.60
2018-09-28T04:06:04.652Z,6.40
2018-09-28T04:08:33.111Z,6.20
2018-09-28T04:11:01.563Z,6.00
2018-09-28T04:13:30.134Z,5.90
2018-09-28T04:15:58.598Z,5.80
2018-09-28T04:18:27.024Z,5.70
2018-09-28T04:20:55.672Z,5.60
2018-09-28T04:23:24.140Z,5.50
2018-09-28T04:25:52.651Z,5.50
2018-09-28T04:28:21.118Z,5.40
2018-09-28T04:30:49.692Z,5.30
2018-09-28T04:33:18.163Z,5.20
2018-09-28T04:35:46.703Z,5.10
2018-09-28T04:38:15.183Z,5.00
2018-09-28T04:40:43.753Z,5.00
2018-09-28T04:43:12.653Z,4.90
2018-09-28T04:45:41.362Z,4.80
2018-09-28T04:48:09.902Z,4.70
2018-09-28T04:50:38.449Z,4.70
2018-09-28T04:53:07.013Z,4.70
2018-09-28T04:55:35.703Z,4.70
2018-09-28T04:58:04.232Z,4.60
2018-09-28T05:00:32.775Z,4.70
2018-09-28T05:03:01.291Z,4.60
2018-09-28T05:05:29.851Z,4.60
2018-09-28T05:07:58.319Z,4.70
2018-09-28T05:10:26.843Z,4.70
2018-09-28T05:12:55.556Z,4.70
2018-09-28T05:15:24.127Z,4.80
2018-09-28T05:17:52.690Z,4.70
2018-09-28T05:20:21.231Z,4.60
2018-09-28T05:22:49.839Z,4.60
2018-09-28T05:25:18.404Z,4.60
2018-09-28T05:27:46.902Z,4.60
2018-09-28T05:30:15.459Z,4.70
2018-09-28T05:32:44.079Z,4.80
2018-09-28T05:35:12.569Z,4.80
2018-09-28T05:37:41.175Z,4.90
2018-09-28T05:40:09.723Z,5.00
2018-09-28T05:42:38.524Z,5.20
2018-09-28T05:45:07.049Z,5.40
2018-09-28T05:47:35.563Z,5.50
2018-09-28T05:50:04.086Z,5.70
2018-09-28T05:52:32.567Z,5.80
2018-09-28T05:55:01.090Z,6.00
2018-09-28T05:57:29.604Z,6.20
2018-09-28T06:00:03.308Z,6.30
2018-09-28T06:02:37.903Z,6.60
2018-09-28T06:05:12.567Z,6.90
2018-09-28T06:07:41.081Z,7.10
2018-09-28T06:10:09.662Z,7.30
2018-09-28T06:12:38.250Z,7.50
2018-09-28T06:15:06.780Z,7.70
2018-09-28T06:17:35.267Z,7.90
2018-09-28T06:20:03.795Z,8.00
2018-09-28T06:22:32.282Z,8.10
2018-09-28T06:25:00.785Z,8.30
2018-09-28T06:27:29.264Z,8.40
2018-09-28T06:29:57.779Z,8.50
2018-09-28T06:32:26.219Z,8.60
2018-09-28T06:34:54.704Z,8.60
2018-09-28T06:37:23.165Z,8.60
2018-09-28T06:39:51.600Z,8.50
2018-09-28T06:42:20.156Z,8.60
2018-09-28T06:44:48.559Z,8.70
2018-09-28T06:47:16.987Z,8.80
2018-09-28T06:49:45.477Z,8.80
2018-09-28T06:52:14.039Z,8.80
2018-09-28T06:54:42.533Z,8.90
2018-09-28T06:57:11.047Z,8.80
2018-09-28T06:59:39.517Z,8.70
2018-09-28T07:02:08.063Z,8.70
2018-09-28T07:04:36.603Z,8.60
2018-09-28T07:07:05.111Z,8.70
2018-09-28T07:09:33.729Z,8.70
2018-09-28T07:12:02.224Z,8.60
2018-09-28T07:14:30.771Z,8.70
2018-09-28T07:16:59.436Z,8.70
2018-09-28T07:19:28.025Z,8.70
2018-09-28T07:21:56.553Z,8.70
2018-09-28T07:24:26.103Z,8.70
2018-09-28T07:26:54.647Z,8.80
2018-09-28T07:29:23.159Z,8.70
2018-09-28T07:31:51.983Z,8.70
2018-09-28T07:34:20.867Z,8.60
2018-09-28T07:36:49.461Z,8.60
2018-09-28T07:39:17.880Z,8.70
2018-09-28T07:41:46.405Z,8.70
2018-09-28T07:44:14.873Z,8.70
2018-09-28T07:46:43.389Z,8.80
2018-09-28T07:49:11.941Z,8.80
2018-09-28T07:51:40.457Z,8.90
2018-09-28T07:54:09.016Z,8.90
2018-09-28T07:56:37.573Z,9.00
2018-09-28T07:59:06.069Z,9.00
2018-09-28T08:01:34.691Z,9.20
2018-09-28T08:04:03.218Z,9.30
2018-09-28T08:06:31.707Z,9.40
2018-09-28T08:09:00.212Z,9.40
2018-09-28T08:11:28.721Z,9.50
2018-09-28T08:13:57.237Z,9.50
2018-09-28T08:16:25.726Z,9.50
2018-09-28T08:18:54.251Z,9.50
2018-09-28T08:21:22.760Z,9.50
2018-09-28T08:23:51.263Z,9.60
2018-09-28T08:26:19.744Z,9.60
2018-09-28T08:28:48.305Z,9.50
2018-09-28T08:31:16.799Z,9.50
2018-09-28T08:33:45.365Z,9.50
2018-09-28T08:36:13.920Z,9.50
2018-09-28T08:38:42.502Z,9.50
2018-09-28T08:41:11.087Z,9.50
2018-09-28T08:43:39.651Z,9.40
2018-09-28T08:46:08.226Z,9.40
2018-09-28T08:48:36.899Z,9.40
2018-09-28T08:51:05.990Z,9.40
2018-09-28T08:53:34.577Z,9.30
2018-09-28T08:56:03.609Z,9.30
2018-09-28T08:58:34.894Z,9.20
2018-09-28T09:01:05.890Z,9.10
2018-09-28T09:03:34.471Z,9.00
2018-09-28T09:06:05.136Z,8.90
2018-09-28T09:08:35.252Z,8.80
2018-09-28T09:11:03.766Z,8.70
2018-09-28T09:13:34.384Z,8.70
2018-09-28T09:16:05.451Z,8.70
2018-09-28T09:18:34.019Z,8.70
2018-09-28T09:21:04.629Z,8.70
2018-09-28T09:23:35.497Z,8.70
2018-09-28T09:26:04.040Z,8.70
2018-09-28T09:28:32.527Z,8.80
2018-09-28T09:31:01.239Z,8.70
2018-09-28T09:33:32.938Z,8.70
2018-09-28T09:36:01.438Z,8.70
2018-09-28T09:38:29.963Z,8.70
2018-09-28T09:40:58.490Z,8.70
2018-09-28T09:43:26.983Z,8.70
2018-09-28T09:45:57.704Z,8.70
2018-09-28T09:48:27.546Z,8.80
2018-09-28T09:50:55.998Z,8.80
2018-09-28T09:53:26.576Z,8.80
2018-09-28T09:55:55.212Z,8.70
2018-09-28T09:58:23.851Z,8.70
2018-09-28T10:00:59.290Z,8.80
2018-09-28T10:03:34.157Z,8.80
2018-09-28T10:06:04.017Z,8.80
2018-09-28T10:08:32.748Z,8.90
2018-09-28T10:11:01.387Z,8.90
2018-09-28T10:13:30.145Z,8.80
2018-09-28T10:16:00.603Z,8.80
2018-09-28T10:18:30.704Z,8.80
2018-09-28T10:20:59.247Z,8.80
2018-09-28T10:23:27.742Z,8.80
2018-09-28T10:25:56.260Z,8.70
2018-09-28T10:28:26.599Z,8.80
2018-09-28T10:30:55.132Z,8.80
2018-09-28T10:33:23.738Z,8.90
2018-09-28T10:35:52.240Z,8.80
2018-09-28T10:38:23.379Z,8.70
2018-09-28T10:40:52.884Z,8.60
2018-09-28T10:43:21.360Z,8.50
2018-09-28T10:45:49.931Z,8.30
2018-09-28T10:48:18.490Z,8.30
2018-09-28T10:50:47.070Z,8.30
2018-09-28T10:53:18.830Z,8.20
2018-09-28T10:55:47.454Z,8.20
2018-09-28T10:58:16.170Z,8.20
2018-09-28T11:00:45.967Z,8.20
2018-09-28T11:03:15.284Z,8.10
2018-09-28T11:05:43.800Z,8.00
2018-09-28T11:08:14.806Z,7.90
2018-09-28T11:10:43.812Z,7.80
2018-09-28T11:13:12.685Z,7.80
2018-09-28T11:15:43.864Z,7.90
2018-09-28T11:18:12.782Z,8.00
2018-09-28T11:20:41.312Z,8.00
2018-09-28T11:23:09.853Z,8.10
2018-09-28T11:25:38.391Z,8.00
2018-09-28T11:28:09.198Z,7.90
2018-09-28T11:30:38.068Z,7.80
2018-09-28T11:33:08.238Z,7.90
2018-09-28T11:35:37.243Z,7.80
2018-09-28T11:38:08.308Z,7.80
2018-09-28T11:40:38.454Z,7.80
2018-09-28T11:43:07.358Z,7.90
2018-09-28T11:45:36.391Z,7.90
2018-09-28T11:48:04.895Z,7.90
2018-09-28T11:50:34.617Z,8.00
2018-09-28T11:53:06.779Z,8.10
2018-09-28T11:55:36.529Z,8.30
2018-09-28T11:58:05.285Z,8.30
2018-09-28T12:00:35.327Z,8.30
2018-09-28T12:03:04.936Z,8.40
2018-09-28T12:05:33.701Z,8.20
2018-09-28T12:08:04.811Z,8.20
2018-09-28T12:10:33.316Z,8.30
2018-09-28T12:13:01.800Z,8.30
2018-09-28T12:15:33.587Z,8.40
2018-09-28T12:18:02.096Z,8.60
2018-09-28T12:20:30.724Z,8.80
2018-09-28T12:23:00.372Z,9.10
2018-09-28T12:25:28.822Z,9.40
2018-09-28T12:27:57.378Z,9.50
2018-09-28T12:30:25.924Z,9.70
2018-09-28T12:32:54.354Z,9.80
2018-09-28T12:35:22.882Z,10.00
2018-09-28T12:37:52.759Z,9.90
2018-09-28T12:40:24.506Z,9.80
2018-09-28T12:42:53.111Z,9.90
2018-09-28T12:45:23.483Z,9.80
2018-09-28T12:47:52.982Z,9.90
2018-09-28T12:50:21.570Z,9.90
2018-09-28T12:52:50.056Z,10.00
2018-09-28T12:55:18.808Z,10.10
2018-09-28T12:57:47.556Z,10.20
2018-09-28T13:00:17.679Z,10.30
2018-09-28T13:02:46.209Z,10.50
2018-09-28T13:05:16.634Z,10.50
2018-09-28T13:07:45.144Z,10.80
2018-09-28T13:10:13.723Z,11.00
2018-09-28T13:12:42.532Z,10.90
2018-09-28T13:15:11.179Z,10.80
2018-09-28T13:17:39.682Z,10.90
2018-09-28T13:20:08.497Z,10.90
2018-09-28T13:22:37.114Z,11.10
2018-09-28T13:25:05.631Z,11.30
2018-09-28T13:27:34.177Z,11.30
2018-09-28T13:30:02.968Z,11.30
2018-09-28T13:32:31.576Z,11.20
2018-09-28T13:35:00.110Z,11.10
2018-09-28T13:37:28.670Z,10.80
2018-09-28T13:39:58.262Z,10.60
2018-09-28T13:42:26.989Z,10.40
2018-09-28T13:44:56.574Z,10.40
2018-09-28T13:47:25.075Z,10.40
2018-09-28T13:49:53.597Z,10.30
2018-09-28T13:52:23.017Z,10.60
2018-09-28T13:54:51.555Z,11.00
2018-09-28T13:57:22.540Z,11.50
2018-09-28T13:59:53.364Z,12.00
2018-09-28T14:02:22.443Z,12.10
2018-09-28T14:04:51.036Z,12.30
2018-09-28T14:07:19.464Z,12.00
2018-09-28T14:09:48.020Z,11.90
2018-09-28T14:12:17.124Z,12.00
2018-09-28T14:14:45.736Z,11.90
2018-09-28T14:17:14.272Z,11.70
2018-09-28T14:19:43.456Z,11.40
2018-09-28T14:22:14.439Z,11.30
2018-09-28T14:24:44.049Z,11.70
2018-09-28T14:27:12.600Z,11.60
2018-09-28T14:29:41.174Z,11.40
2018-09-28T14:32:09.921Z,11.50
2018-09-28T14:34:40.169Z,11.60
2018-09-28T14:37:11.515Z,11.60
2018-09-28T14:39:40.091Z,11.10
2018-09-28T14:42:10.629Z,11.00
2018-09-28T14:44:41.340Z,11.00
2018-09-28T14:47:09.989Z,10.70
2018-09-28T14:49:38.606Z,10.60
2018-09-28T14:52:07.135Z,10.50
2018-09-28T14:54:35.750Z,10.50
2018-09-28T14:57:06.310Z,10.50
2018-09-28T14:59:37.271Z,10.60
2018-09-28T15:02:07.414Z,10.50
2018-09-28T15:04:36.147Z,10.50
2018-09-28T15:07:06.117Z,10.50
2018-09-28T15:09:36.567Z,10.50
2018-09-28T15:12:06.328Z,10.60
2018-09-28T15:14:35.976Z,10.80
2018-09-28T15:17:05.118Z,11.20
2018-09-28T15:19:33.740Z,11.70
2018-09-28T15:22:04.541Z,12.20
2018-09-28T15:24:33.115Z,12.40
2018-09-28T15:27:01.632Z,12.60
2018-09-28T15:29:37.223Z,13.00
2018-09-28T15:32:06.011Z,13.40
2018-09-28T15:34:35.020Z,13.30
2018-09-28T15:37:04.861Z,12.90
2018-09-28T15:39:33.307Z,12.40
2018-09-28T15:42:03.256Z,12.00
2018-09-28T15:44:31.881Z,12.00
2018-09-28T15:47:00.471Z,11.70
2018-09-28T15:49:29.762Z,11.40
2018-09-28T15:51:58.414Z,11.20
2018-09-28T15:54:27.693Z,11.00
2018-09-28T15:56:57.964Z,10.80
2018-09-28T15:59:29.053Z,10.60
2018-09-28T16:01:57.593Z,10.50
2018-09-28T16:04:26.161Z,10.30
2018-09-28T16:06:54.611Z,10.20
2018-09-28T16:09:23.119Z,10.10
2018-09-28T16:11:51.691Z,10.10
2018-09-28T16:14:20.281Z,10.00
2018-09-28T16:16:48.792Z,9.90
2018-09-28T16:19:17.313Z,9.70
2018-09-28T16:21:45.786Z,9.70
2018-09-28T16:24:14.403Z,9.60
2018-09-28T16:26:44.685Z,9.50
2018-09-28T16:29:13.339Z,9.40
2018-09-28T16:31:41.859Z,9.20
2018-09-28T16:34:10.342Z,9.20
2018-09-28T16:36:40.447Z,9.00
2018-09-28T16:39:10.198Z,8.90
2018-09-28T16:41:39.921Z,8.70
2018-09-28T16:44:09.642Z,8.70
2018-09-28T16:46:38.180Z,8.60
2018-09-28T16:49:06.754Z,8.60
2018-09-28T16:51:37.547Z,8.60
2018-09-28T16:54:07.059Z,8.50
2018-09-28T16:56:35.713Z,8.60
2018-09-28T16:59:04.199Z,8.50
2018-09-28T17:01:33.366Z,8.50
2018-09-28T17:04:02.406Z,8.40
2018-09-28T17:06:31.520Z,8.40
2018-09-28T17:09:00.037Z,8.30
2018-09-28T17:11:29.931Z,8.20
2018-09-28T17:13:59.604Z,8.20
2018-09-28T17:16:28.837Z,8.20
2018-09-28T17:18:58.034Z,8.30
2018-09-28T17:21:26.588Z,8.40
2018-09-28T17:23:58.284Z,8.40
2018-09-28T17:26:27.076Z,8.50
2018-09-28T17:28:55.693Z,8.50
2018-09-28T17:31:24.473Z,8.40
2018-09-28T17:33:53.136Z,8.40
2018-09-28T17:36:21.614Z,8.20
2018-09-28T17:38:50.151Z,8.20
2018-09-28T17:41:18.735Z,8.10
2018-09-28T17:43:47.200Z,8.10
2018-09-28T17:46:15.711Z,8.00
2018-09-28T17:48:44.191Z,7.90
2018-09-28T17:51:12.748Z,7.80
2018-09-28T17:53:41.264Z,7.70
2018-09-28T17:56:09.732Z,7.50
2018-09-28T17:58:38.220Z,7.40
2018-09-28T18:01:06.684Z,7.30
2018-09-28T18:03:35.191Z,7.30
2018-09-28T18:06:03.808Z,7.20
2018-09-28T18:08:32.330Z,7.30
2018-09-28T18:11:00.785Z,7.30
2018-09-28T18:13:29.288Z,7.30
2018-09-28T18:15:57.735Z,7.20
2018-09-28T18:18:26.224Z,7.20
2018-09-28T18:20:54.755Z,7.10
2018-09-28T18:23:23.265Z,6.90
2018-09-28T18:25:51.725Z,6.80
2018-09-28T18:28:20.171Z,6.80
2018-09-28T18:30:48.657Z,6.70
2018-09-28T18:33:17.188Z,6.70
2018-09-28T18:35:45.644Z,6.60
2018-09-28T18:38:14.153Z,6.60
2018-09-28T18:40:42.640Z,6.60
2018-09-28T18:43:11.128Z,6.40
2018-09-28T18:45:39.634Z,6.50
2018-09-28T18:48:08.149Z,6.40
2018-09-28T18:50:36.641Z,6.40
2018-09-28T18:53:05.049Z,6.40
2018-09-28T18:55:33.551Z,6.40
2018-09-28T18:58:02.081Z,6.30
2018-09-28T19:00:30.597Z,6.20
2018-09-28T19:02:59.056Z,6.20
2018-09-28T19:05:27.554Z,6.10
2018-09-28T19:07:55.992Z,6.00
2018-09-28T19:10:24.550Z,6.00
2018-09-28T19:12:53.787Z,5.90
2018-09-28T19:15:22.084Z,6.00
2018-09-28T19:17:50.571Z,6.00
2018-09-28T19:20:19.059Z,5.90
2018-09-28T19:22:47.632Z,5.90
2018-09-28T19:25:16.117Z,5.90
2018-09-28T19:27:44.622Z,5.80
2018-09-28T19:30:13.182Z,5.70
2018-09-28T19:32:43.916Z,5.60
2018-09-28T19:35:12.379Z,5.50
2018-09-28T19:37:41.008Z,5.50
2018-09-28T19:40:09.460Z,5.40
2018-09-28T19:42:37.911Z,5.20
2018-09-28T19:45:06.452Z,5.10
2018-09-28T19:47:34.986Z,4.90
2018-09-28T19:50:03.397Z,4.80
2018-09-28T19:52:31.908Z,4.70
2018-09-28T19:55:00.389Z,4.60
2018-09-28T19:57:28.816Z,4.50
2018-09-28T19:59:57.229Z,4.60
2018-09-28T20:02:25.824Z,4.40
2018-09-28T20:04:54.252Z,4.30
2018-09-28T20:07:22.711Z,4.20
2018-09-28T20:09:51.329Z,4.20
2018-09-28T20:12:19.791Z,4.20
2018-09-28T20:14:48.155Z,4.20
2018-09-28T20:17:16.549Z,4.40
2018-09-28T20:19:46.627Z,4.40
2018-09-28T20:22:15.145Z,4.40
2018-09-28T20:24:43.577Z,4.40
2018-09-28T20:27:12.274Z,4.50
2018-09-28T20:29:40.845Z,4.60
2018-09-28T20:32:09.598Z,4.50
2018-09-28T20:34:38.125Z,4.60
2018-09-28T20:37:06.648Z,4.60
2018-09-28T20:39:35.142Z,4.50
2018-09-28T20:42:03.612Z,4.40
2018-09-28T20:44:32.091Z,4.20
2018-09-28T20:47:00.586Z,4.20
2018-09-28T20:49:29.070Z,4.30
2018-09-28T20:51:57.612Z,4.30
2018-09-28T20:54:26.186Z,4.30
2018-09-28T20:56:54.768Z,4.30
2018-09-28T20:59:23.269Z,4.30
2018-09-28T21:01:51.832Z,4.20
2018-09-28T21:04:20.452Z,4.20
2018-09-28T21:06:48.916Z,4.10
2018-09-28T21:09:17.474Z,4.20
2018-09-28T21:11:45.977Z,4.10
2018-09-28T21:14:14.646Z,4.00
2018-09-28T21:16:43.116Z,4.10
2018-09-28T21:19:11.823Z,4.10
2018-09-28T21:21:40.292Z,4.00
2018-09-28T21:24:08.728Z,3.90
2018-09-28T21:26:37.211Z,4.20
2018-09-28T21:29:05.821Z,4.10
2018-09-28T21:31:34.257Z,4.00
2018-09-28T21:34:02.700Z,4.00
2018-09-28T21:36:31.247Z,3.80
2018-09-28T21:38:59.740Z,3.70
2018-09-28T21:41:28.483Z,3.60
2018-09-28T21:43:56.950Z,3.60
2018-09-28T21:46:25.481Z,3.50
2018-09-28T21:48:53.970Z,3.50
2018-09-28T21:51:22.779Z,3.50
2018-09-28T21:53:51.297Z,3.50
2018-09-28T21:56:19.795Z,3.30
2018-09-28T21:58:48.248Z,3.10
2018-09-28T22:01:18.236Z,3.10
2018-09-28T22:03:47.707Z,2.90
2018-09-28T22:06:16.186Z,2.80
2018-09-28T22:08:44.858Z,2.80
2018-09-28T22:11:13.523Z,2.60
2018-09-28T22:13:42.034Z,2.60
2018-09-28T22:16:10.588Z,2.40
2018-09-28T22:18:39.230Z,2.40
2018-09-28T22:21:07.745Z,2.30
2018-09-28T22:23:36.272Z,2.30
2018-09-28T22:26:04.785Z,2.20
2018-09-28T22:28:34.342Z,2.20
2018-09-28T22:31:02.852Z,2.10
2018-09-28T22:33:31.400Z,2.00
2018-09-28T22:35:59.904Z,1.90
2018-09-28T22:38:28.495Z,1.80
2018-09-28T22:40:57.009Z,1.80
2018-09-28T22:43:25.592Z,1.80
2018-09-28T22:45:54.099Z,1.70
2018-09-28T22:48:22.632Z,1.70
2018-09-28T22:50:51.148Z,1.60
2018-09-28T22:53:19.674Z,1.60
2018-09-28T22:55:48.205Z,1.50
2018-09-28T22:58:16.679Z,1.40
2018-09-28T23:00:46.025Z,1.40
2018-09-28T23:03:14.577Z,1.40
2018-09-28T23:05:43.113Z,1.40
2018-09-28T23:08:11.701Z,1.30
2018-09-28T23:10:40.412Z,1.20
2018-09-28T23:13:08.999Z,1.10
2018-09-28T23:15:37.654Z,1.10
2018-09-28T23:18:06.230Z,1.00
2018-09-28T23:20:35.057Z,1.10
2018-09-28T23:23:03.639Z,1.00
2018-09-28T23:25:32.173Z,1.10
2018-09-28T23:28:00.691Z,1.00
2018-09-28T23:30:29.265Z,0.90
2018-09-28T23:32:57.803Z,1.00
2018-09-28T23:35:26.411Z,0.90
2018-09-28T23:37:55.053Z,0.80
2018-09-28T23:40:23.884Z,0.80
2018-09-28T23:42:52.456Z,0.80
2018-09-28T23:45:21.126Z,0.80
2018-09-28T23:47:49.736Z,0.70
2018-09-28T23:50:18.281Z,0.60
2018-09-28T23:52:46.850Z,0.60
2018-09-28T23:55:15.703Z,0.50
2018-09-28T23:57:44.235Z,0.50
